Monday, October 15, 2018, 4:31 AM EDT
Back to Local

KWRI, Mcguire Air Force Base

Location: Trenton, NJ, United States Lat: 40.017
Local Time: 4:31 AM EDT ( 8:31 GMT) Lon: -74.6
Time Zone: US/Eastern Elev: 134 ft

Show me the last for .
Show Decoded

2018-10-15 04:16 METAR KWRI 150816Z 00000KT 10SM OVC033 12/11 A3015 RMK AO2A RAE16 SLP210 =
2018-10-15 03:56 METAR KWRI 150756Z 18004KT 10SM -RA OVC033 12/11 A3015 RMK AO2A
                 RAE05DZB05E06DZB13E19RAB19E41DZB41E43RAB43 SLP210 P0001 T01170108 =
2018-10-15 03:43 METAR KWRI 150743Z 17003KT 10SM -DZ SCT027 OVC034 12/10 A3016 RMK AO2A
                 RAE05DZB05E06DZB13E19RAB19E41DZB41 SLP213 =
2018-10-15 03:33 METAR KWRI 150733Z 17003KT 10SM -RA BKN028 OVC036 11/10 A3016 RMK AO2A
                 RAE05DZB05E06DZB13E19RAB19 CIG 028V033 SLP213 =
2018-10-15 03:13 METAR KWRI 150713Z 00000KT 10SM -DZ OVC030 11/10 A3017 RMK AO2A
                 RAE05DZB05E06DZB13 SLP216 =
2018-10-15 03:06 METAR KWRI 150706Z 00000KT 10SM OVC031 11/10 A3017 RMK AO2A RAE05DZB05E06 SLP216
                 =
2018-10-15 02:56 METAR KWRI 150656Z COR 00000KT 10SM -RA OVC031 11/09 A3017 RMK AO2A RAB48 SLP216
                 P0000 T01120093 COR 0707 =
2018-10-15 02:48 METAR KWRI 150648Z 00000KT 10SM -RA OVC031 11/09 A3017 RMK AO2A RAB48 SLP216 =
2018-10-15 01:56 METAR KWRI 150556Z 00000KT 10SM OVC035 11/08 A3018 RMK AO2A SLP220 T01090083
                 10110 20095 57010 =
2018-10-15 00:56 METAR KWRI 150456Z 00000KT 10SM BKN036 OVC043 11/08 A3018 RMK AO2A SLP220
                 T01080084 401420047 =
2018-10-14 23:56 METAR KWRI 150356Z 00000KT 10SM OVC065 11/09 A3020 RMK AO2A SLP227 T01050086 =
2018-10-14 22:56 METAR KWRI 150256Z 00000KT 10SM BKN100 10/09 A3021 RMK AO2A SLP230 T01020088
                 53002 =
2018-10-14 21:56 METAR KWRI 150156Z 00000KT 10SM OVC100 11/09 A3020 RMK AO2A SLP227 T01080091 =
2018-10-14 20:56 METAR KWRI 150056Z COR 00000KT 10SM OVC100 11/09 A3020 RMK AO2A SLP227 T01050086
                 COR 0100 =
2018-10-14 19:56 METAR KWRI 142356Z AUTO 22003KT 10SM CLR 10/08 A3020 RMK AO2 SLP227 T01010082
                 10142 20100 55000 =
2018-10-14 18:56 METAR KWRI 142256Z AUTO 18004KT 10SM FEW085 11/08 A3018 RMK AO2 SLP220 T01060080
                 =
2018-10-14 17:56 METAR KWRI 142156Z AUTO 19004KT 10SM OVC090 13/08 A3019 RMK AO2 SLP224 T01290084
                 =
2018-10-14 16:56 METAR KWRI 142056Z AUTO 23005KT 10SM BKN100 14/07 A3020 RMK AO2 SLP227 T01360069
                 55003 =
2018-10-14 15:56 METAR KWRI 141956Z AUTO 25006KT 10SM OVC090 14/06 A3021 RMK AO2 SLP230 T01400061
                 =
2018-10-14 14:56 METAR KWRI 141856Z AUTO 25004KT 10SM CLR 14/07 A3020 RMK AO2 SLP227 T01420065 =
2018-10-14 13:56 METAR KWRI 141756Z AUTO 18003KT 10SM FEW110 13/07 A3021 RMK AO2 SLP230 T01310073
                 10131 20063 58010 =
2018-10-14 12:56 METAR KWRI 141656Z AUTO 15003KT 10SM CLR 13/07 A3024 RMK AO2 SLP240 T01280068 =
2018-10-14 11:56 METAR KWRI 141556Z AUTO 00000KT 10SM FEW140 13/07 A3025 RMK AO2 SLP244 T01290071
                 =
2018-10-14 10:56 METAR KWRI 141456Z AUTO 00000KT 10SM BKN150 13/05 A3024 RMK AO2 SLP240 T01270051
                 51021 =
2018-10-14 09:56 METAR KWRI 141356Z AUTO 00000KT 10SM BKN160 12/07 A3024 RMK AO2 SLP240 T01160065
                 =
2018-10-14 08:56 METAR KWRI 141256Z AUTO 00000KT 10SM FEW160 BKN180 BKN200 09/07 A3021 RMK AO2
                 SLP230 T00940067 =
2018-10-14 07:56 METAR KWRI 141156Z AUTO 00000KT 10SM BKN170 BKN190 06/06 A3018 RMK AO2 SLP220
                 70001 T00630056 10069 20047 51007 =
2018-10-14 06:56 METAR KWRI 141056Z AUTO 00000KT 10SM SCT180 SCT200 SCT230 06/05 A3018 RMK AO2
                 SLP220 T00570051 =
2018-10-14 05:56 METAR KWRI 140956Z AUTO 00000KT 10SM FEW210 05/05 A3017 RMK AO2 SLP217 T00490045
                 =
2018-10-14 04:56 METAR KWRI 140856Z AUTO 21003KT 10SM FEW200 BKN220 06/05 A3016 RMK AO2 SLP213
                 T00550048 52011 =

Support USWX by starting your Amazon purchase here.